createdAt,value
2022-12-26T00:01:13.333Z,10.30
2022-12-26T00:03:41.768Z,10.40
2022-12-26T00:06:13.826Z,10.40
2022-12-26T00:08:44.000Z,10.50
2022-12-26T00:11:13.305Z,10.50
2022-12-26T00:13:42.250Z,10.50
2022-12-26T00:16:12.530Z,10.50
2022-12-26T00:18:41.768Z,10.50
2022-12-26T00:21:12.375Z,10.50
2022-12-26T00:23:41.412Z,10.50
2022-12-26T00:26:12.936Z,10.50
2022-12-26T00:28:41.390Z,10.50
2022-12-26T00:31:12.148Z,10.50
2022-12-26T00:33:40.816Z,10.50
2022-12-26T00:36:11.075Z,10.50
2022-12-26T00:38:40.355Z,10.50
2022-12-26T00:41:11.113Z,10.50
2022-12-26T00:43:39.691Z,10.50
2022-12-26T00:46:08.919Z,10.40
2022-12-26T00:48:37.184Z,10.50
2022-12-26T00:51:06.415Z,10.50
2022-12-26T00:53:35.066Z,10.50
2022-12-26T00:56:03.291Z,10.50
2022-12-26T00:58:33.188Z,10.50
2022-12-26T01:01:08.268Z,10.50
2022-12-26T01:03:36.631Z,10.50
2022-12-26T01:06:05.718Z,10.50
2022-12-26T01:08:34.256Z,10.50
2022-12-26T01:11:06.600Z,10.60
2022-12-26T01:13:37.116Z,10.60
2022-12-26T01:16:07.246Z,10.60
2022-12-26T01:18:36.419Z,10.60
2022-12-26T01:21:06.965Z,10.60
2022-12-26T01:23:35.273Z,10.50
2022-12-26T01:26:16.980Z,10.60
2022-12-26T01:28:50.423Z,10.60
2022-12-26T01:31:19.694Z,10.60
2022-12-26T01:33:48.138Z,10.60
2022-12-26T01:36:17.320Z,10.60
2022-12-26T01:38:46.166Z,10.70
2022-12-26T01:41:21.058Z,10.70
2022-12-26T01:44:00.028Z,10.70
2022-12-26T01:46:32.502Z,10.70
2022-12-26T01:49:03.597Z,10.70
2022-12-26T01:51:37.941Z,10.70
2022-12-26T01:54:39.703Z,10.70
2022-12-26T01:56:58.694Z,10.70
2022-12-26T01:59:31.887Z,10.70
2022-12-26T02:02:01.098Z,10.70
2022-12-26T02:04:51.425Z,10.70
2022-12-26T02:07:19.799Z,10.70
2022-12-26T02:09:48.225Z,10.70
2022-12-26T02:12:35.325Z,10.60
2022-12-26T02:15:10.011Z,10.60
2022-12-26T02:17:39.103Z,10.50
2022-12-26T02:20:18.765Z,10.60
2022-12-26T02:23:16.857Z,10.60
2022-12-26T02:26:03.508Z,10.60
2022-12-26T02:28:55.008Z,10.60
2022-12-26T02:31:29.285Z,10.70
2022-12-26T02:34:08.123Z,10.70
2022-12-26T02:36:59.239Z,10.70
2022-12-26T02:39:48.027Z,10.80
2022-12-26T02:42:25.887Z,10.80
2022-12-26T02:45:14.122Z,10.80
2022-12-26T02:47:53.596Z,10.90
2022-12-26T02:50:47.760Z,10.90
2022-12-26T02:53:50.587Z,10.90
2022-12-26T02:56:41.765Z,10.90
2022-12-26T02:59:56.444Z,10.90
2022-12-26T03:02:48.809Z,11.00
2022-12-26T03:05:43.410Z,11.00
2022-12-26T03:08:43.385Z,11.00
2022-12-26T03:11:29.184Z,11.00
2022-12-26T03:14:04.749Z,11.00
2022-12-26T03:16:51.982Z,11.00
2022-12-26T03:19:22.698Z,11.00
2022-12-26T03:21:52.928Z,11.00
2022-12-26T03:24:23.654Z,11.00
2022-12-26T03:26:54.208Z,11.00
2022-12-26T03:29:42.223Z,11.00
2022-12-26T03:32:12.382Z,11.00
2022-12-26T03:34:45.285Z,11.00
2022-12-26T03:37:48.869Z,11.00
2022-12-26T03:40:50.158Z,11.10
2022-12-26T03:43:48.060Z,11.10
2022-12-26T03:46:40.549Z,11.10
2022-12-26T03:49:30.917Z,11.10
2022-12-26T03:52:21.195Z,11.10
2022-12-26T03:55:12.867Z,11.10
2022-12-26T03:58:06.799Z,11.10
2022-12-26T04:00:55.296Z,11.10
2022-12-26T04:03:42.820Z,11.10
2022-12-26T04:06:36.100Z,11.10
2022-12-26T04:09:27.834Z,11.10
2022-12-26T04:12:16.780Z,11.10
2022-12-26T04:15:06.471Z,11.10
2022-12-26T04:17:58.760Z,11.20
2022-12-26T04:20:34.452Z,11.20
2022-12-26T04:23:24.901Z,11.20
2022-12-26T04:26:18.637Z,11.20
2022-12-26T04:29:05.649Z,11.20
2022-12-26T04:31:58.127Z,11.20
2022-12-26T04:34:49.826Z,11.20
2022-12-26T04:37:40.652Z,11.20
2022-12-26T04:40:30.644Z,11.30
2022-12-26T04:43:49.867Z,11.30
2022-12-26T04:46:08.177Z,11.30
2022-12-26T04:49:02.028Z,11.30
2022-12-26T04:51:30.432Z,11.30
2022-12-26T04:53:58.665Z,11.30
2022-12-26T04:56:26.883Z,11.40
2022-12-26T04:58:55.115Z,11.40
2022-12-26T05:01:42.203Z,11.40
2022-12-26T05:04:31.409Z,11.40
2022-12-26T05:07:32.321Z,11.40
2022-12-26T05:10:00.706Z,11.40
2022-12-26T05:12:29.014Z,11.40
2022-12-26T05:14:57.273Z,11.40
2022-12-26T05:17:46.387Z,11.50
2022-12-26T05:20:32.322Z,11.50
2022-12-26T05:23:21.309Z,11.50
2022-12-26T05:26:07.623Z,11.50
2022-12-26T05:28:44.796Z,11.50
2022-12-26T05:31:15.795Z,11.50
2022-12-26T05:34:03.552Z,11.50
2022-12-26T05:36:37.814Z,11.50
2022-12-26T05:39:06.867Z,11.50
2022-12-26T05:41:35.114Z,11.60
2022-12-26T05:44:03.339Z,11.60
2022-12-26T05:46:31.696Z,11.60
2022-12-26T05:49:01.439Z,11.60
2022-12-26T05:51:29.722Z,11.60
2022-12-26T05:53:57.993Z,11.60
2022-12-26T05:56:26.396Z,11.60
2022-12-26T05:58:58.876Z,11.60
2022-12-26T06:01:28.916Z,11.70
2022-12-26T06:03:58.699Z,11.70
2022-12-26T06:06:28.784Z,11.70
2022-12-26T06:08:58.107Z,11.60
2022-12-26T06:11:27.154Z,11.60
2022-12-26T06:13:55.909Z,11.70
2022-12-26T06:16:24.501Z,11.70
2022-12-26T06:18:52.855Z,11.70
2022-12-26T06:21:22.119Z,11.70
2022-12-26T06:23:51.839Z,11.70
2022-12-26T06:26:20.083Z,11.70
2022-12-26T06:28:48.338Z,11.70
2022-12-26T06:31:21.043Z,11.70
2022-12-26T06:33:49.924Z,11.70
2022-12-26T06:36:20.441Z,11.70
2022-12-26T06:38:48.741Z,11.70
2022-12-26T06:41:20.097Z,11.70
2022-12-26T06:43:48.947Z,11.70
2022-12-26T06:46:19.084Z,11.70
2022-12-26T06:48:47.769Z,11.70
2022-12-26T06:51:18.551Z,11.70
2022-12-26T06:53:46.875Z,11.70
2022-12-26T06:56:19.001Z,11.70
2022-12-26T06:58:47.427Z,11.70
2022-12-26T07:01:18.409Z,11.70
2022-12-26T07:03:51.630Z,11.70
2022-12-26T07:06:24.618Z,11.70
2022-12-26T07:08:53.588Z,11.70
2022-12-26T07:11:25.589Z,11.70
2022-12-26T07:13:55.056Z,11.80
2022-12-26T07:16:23.582Z,11.80
2022-12-26T07:18:54.307Z,11.80
2022-12-26T07:21:23.010Z,11.80
2022-12-26T07:23:51.503Z,11.80
2022-12-26T07:26:20.137Z,11.70
2022-12-26T07:28:49.779Z,11.80
2022-12-26T07:31:19.085Z,11.80
2022-12-26T07:33:49.851Z,11.80
2022-12-26T07:36:18.811Z,11.80
2022-12-26T07:38:47.372Z,11.80
2022-12-26T07:41:32.810Z,11.80
2022-12-26T07:44:02.431Z,11.80
2022-12-26T07:46:31.380Z,11.90
2022-12-26T07:49:00.773Z,11.80
2022-12-26T07:51:29.338Z,11.80
2022-12-26T07:53:57.809Z,11.80
2022-12-26T07:56:26.259Z,11.80
2022-12-26T07:58:54.521Z,11.80
2022-12-26T08:01:24.294Z,11.90
2022-12-26T08:03:53.207Z,11.90
2022-12-26T08:06:21.908Z,11.90
2022-12-26T08:08:51.882Z,12.00
2022-12-26T08:11:22.911Z,12.00
2022-12-26T08:13:51.462Z,12.00
2022-12-26T08:16:20.659Z,12.00
2022-12-26T08:18:50.364Z,12.00
2022-12-26T08:21:18.700Z,12.00
2022-12-26T08:23:48.499Z,12.00
2022-12-26T08:26:22.675Z,12.00
2022-12-26T08:28:52.423Z,12.00
2022-12-26T08:31:22.376Z,12.00
2022-12-26T08:33:52.152Z,12.00
2022-12-26T08:36:20.394Z,12.00
2022-12-26T08:38:48.609Z,12.10
2022-12-26T08:41:17.921Z,12.10
2022-12-26T08:46:38.792Z,12.10
2022-12-26T08:49:08.433Z,12.10
2022-12-26T08:51:36.722Z,12.10
2022-12-26T08:54:05.388Z,12.20
2022-12-26T08:56:33.818Z,12.20
2022-12-26T08:59:02.054Z,12.20
2022-12-26T09:01:32.266Z,12.30
2022-12-26T09:04:03.241Z,12.30
2022-12-26T09:06:34.089Z,12.30
2022-12-26T09:09:02.876Z,12.30
2022-12-26T09:11:31.247Z,12.30
2022-12-26T09:14:02.590Z,12.30
2022-12-26T09:16:39.302Z,12.30
2022-12-26T09:19:11.175Z,12.30
2022-12-26T09:21:41.390Z,12.30
2022-12-26T09:24:13.107Z,12.30
2022-12-26T09:26:41.680Z,12.30
2022-12-26T09:29:12.029Z,12.40
2022-12-26T09:31:40.566Z,12.40
2022-12-26T09:34:09.322Z,12.40
2022-12-26T09:36:39.770Z,12.40
2022-12-26T09:39:09.739Z,12.40
2022-12-26T09:41:59.431Z,12.50
2022-12-26T09:44:37.912Z,12.50
2022-12-26T09:47:17.721Z,12.50
2022-12-26T09:49:53.159Z,12.60
2022-12-26T09:52:25.979Z,12.60
2022-12-26T09:55:00.200Z,12.60
2022-12-26T09:57:37.711Z,12.60
2022-12-26T10:00:08.651Z,12.60
2022-12-26T10:02:36.917Z,12.70
2022-12-26T10:05:06.799Z,12.70
2022-12-26T10:07:42.423Z,12.70
2022-12-26T10:10:15.068Z,12.70
2022-12-26T10:12:53.341Z,12.70
2022-12-26T10:15:39.513Z,12.70
2022-12-26T10:18:25.464Z,12.70
2022-12-26T10:21:10.135Z,12.70
2022-12-26T10:23:40.432Z,12.70
2022-12-26T10:26:16.928Z,12.80
2022-12-26T10:28:50.590Z,12.80
2022-12-26T10:31:22.654Z,12.80
2022-12-26T10:33:55.545Z,12.80
2022-12-26T10:36:32.699Z,12.80
2022-12-26T10:39:04.051Z,12.80
2022-12-26T10:41:40.298Z,12.80
2022-12-26T10:44:12.756Z,12.80
2022-12-26T10:46:59.973Z,12.80
2022-12-26T10:49:28.985Z,12.80
2022-12-26T10:52:00.312Z,12.80
2022-12-26T10:54:30.139Z,12.70
2022-12-26T10:57:01.816Z,12.70
2022-12-26T10:59:40.406Z,12.70
2022-12-26T11:02:24.949Z,12.70
2022-12-26T11:07:52.446Z,12.70
2022-12-26T11:10:23.719Z,12.70
2022-12-26T11:12:55.456Z,12.70
2022-12-26T11:15:30.191Z,12.70
2022-12-26T11:18:10.976Z,12.60
2022-12-26T11:20:40.006Z,12.60
2022-12-26T11:23:24.928Z,12.60
2022-12-26T11:25:55.064Z,12.60
2022-12-26T11:28:34.216Z,12.50
2022-12-26T11:31:04.713Z,12.50
2022-12-26T11:33:35.319Z,12.50
2022-12-26T11:36:10.428Z,12.50
2022-12-26T11:38:49.289Z,12.40
2022-12-26T11:41:36.803Z,12.40
2022-12-26T11:44:18.712Z,12.30
2022-12-26T11:46:52.325Z,12.40
2022-12-26T11:49:26.202Z,12.40
2022-12-26T11:51:59.207Z,12.40
2022-12-26T11:54:31.675Z,12.50
2022-12-26T11:57:13.097Z,12.60
2022-12-26T11:59:42.814Z,12.70
2022-12-26T12:02:25.640Z,12.70
2022-12-26T12:04:56.539Z,12.80
2022-12-26T12:07:53.437Z,12.80
2022-12-26T12:10:48.470Z,12.80
2022-12-26T12:13:27.216Z,12.90
2022-12-26T12:16:07.607Z,12.80
2022-12-26T12:18:48.959Z,12.80
2022-12-26T12:21:26.101Z,12.80
2022-12-26T12:24:11.017Z,12.70
2022-12-26T12:26:54.443Z,12.70
2022-12-26T12:29:36.746Z,12.60
2022-12-26T12:32:14.486Z,12.50
2022-12-26T12:35:08.789Z,12.50
2022-12-26T12:37:50.830Z,12.50
2022-12-26T12:40:31.204Z,12.40
2022-12-26T12:43:09.302Z,12.40
2022-12-26T12:45:48.215Z,12.40
2022-12-26T12:48:29.498Z,12.40
2022-12-26T12:51:05.330Z,12.40
2022-12-26T12:53:51.584Z,12.40
2022-12-26T12:56:34.596Z,12.50
2022-12-26T12:59:12.264Z,12.50
2022-12-26T13:01:44.951Z,12.50
2022-12-26T13:04:19.171Z,12.60
2022-12-26T13:06:52.418Z,12.60
2022-12-26T13:09:23.962Z,12.70
2022-12-26T13:11:58.213Z,12.70
2022-12-26T13:14:30.417Z,12.70
2022-12-26T13:17:02.133Z,12.70
2022-12-26T13:19:39.047Z,12.70
2022-12-26T13:22:14.990Z,12.60
2022-12-26T13:24:45.813Z,12.60
2022-12-26T13:27:18.470Z,12.50
2022-12-26T13:29:48.837Z,12.40
2022-12-26T13:32:22.184Z,12.40
2022-12-26T13:34:53.208Z,12.30
2022-12-26T13:37:58.042Z,12.20
2022-12-26T13:40:30.254Z,12.20
2022-12-26T13:43:21.456Z,12.20
2022-12-26T13:45:54.983Z,12.20
2022-12-26T13:48:56.228Z,12.20
2022-12-26T13:51:49.508Z,12.10
2022-12-26T13:54:18.673Z,12.00
2022-12-26T13:57:28.103Z,12.00
2022-12-26T14:00:06.251Z,11.90
2022-12-26T14:03:21.882Z,11.90
2022-12-26T14:06:22.793Z,11.90
2022-12-26T14:09:21.891Z,11.80
2022-12-26T14:12:05.665Z,11.90
2022-12-26T14:14:52.393Z,11.90
2022-12-26T14:17:34.256Z,11.90
2022-12-26T14:20:12.406Z,11.90
2022-12-26T14:22:50.689Z,12.00
2022-12-26T14:25:27.947Z,12.00
2022-12-26T14:28:03.755Z,12.00
2022-12-26T14:30:36.578Z,12.00
2022-12-26T14:33:22.761Z,11.90
2022-12-26T14:36:02.599Z,11.80
2022-12-26T14:38:41.763Z,11.70
2022-12-26T14:41:33.922Z,11.70
2022-12-26T14:44:15.749Z,11.60
2022-12-26T14:47:00.198Z,11.50
2022-12-26T14:49:39.451Z,11.50
2022-12-26T14:52:40.927Z,11.40
2022-12-26T14:55:42.168Z,11.40
2022-12-26T14:58:31.049Z,11.30
2022-12-26T15:01:38.329Z,11.30
2022-12-26T15:04:14.175Z,11.30
2022-12-26T15:07:15.463Z,11.30
2022-12-26T15:10:40.730Z,11.40
2022-12-26T15:13:30.728Z,11.40
2022-12-26T15:16:12.064Z,11.40
2022-12-26T15:19:14.179Z,11.40
2022-12-26T15:22:05.456Z,11.50
2022-12-26T15:25:20.234Z,11.50
2022-12-26T15:28:22.929Z,11.50
2022-12-26T15:31:15.806Z,11.60
2022-12-26T15:33:51.509Z,11.60
2022-12-26T15:36:28.452Z,11.60
2022-12-26T15:39:02.561Z,11.60
2022-12-26T15:41:39.385Z,11.50
2022-12-26T15:44:21.890Z,11.50
2022-12-26T15:46:58.954Z,11.40
2022-12-26T15:49:56.960Z,11.30
2022-12-26T15:52:38.799Z,11.30
2022-12-26T15:55:21.487Z,11.20
2022-12-26T15:57:57.289Z,11.20
2022-12-26T16:00:26.934Z,11.20
2022-12-26T16:03:18.745Z,11.20
2022-12-26T16:05:59.501Z,11.20
2022-12-26T16:08:49.390Z,11.20
2022-12-26T16:11:23.300Z,11.20
2022-12-26T16:13:54.608Z,11.10
2022-12-26T16:16:29.268Z,11.10
2022-12-26T16:18:59.496Z,11.10
2022-12-26T16:21:47.356Z,11.10
2022-12-26T16:24:19.765Z,11.20
2022-12-26T16:26:48.772Z,11.20
2022-12-26T16:29:21.185Z,11.20
2022-12-26T16:31:49.722Z,11.20
2022-12-26T16:34:21.854Z,11.30
2022-12-26T16:36:51.779Z,11.30
2022-12-26T16:39:24.342Z,11.30
2022-12-26T16:42:05.443Z,11.30
2022-12-26T16:44:38.059Z,11.30
2022-12-26T16:47:08.651Z,11.40
2022-12-26T16:49:40.514Z,11.40
2022-12-26T16:52:08.937Z,11.40
2022-12-26T16:54:42.479Z,11.40
2022-12-26T16:57:16.680Z,11.40
2022-12-26T16:59:51.871Z,11.40
2022-12-26T17:02:25.430Z,11.40
2022-12-26T17:05:00.529Z,11.40
2022-12-26T17:07:29.695Z,11.40
2022-12-26T17:10:01.533Z,11.40
2022-12-26T17:12:35.019Z,11.40
2022-12-26T17:15:04.342Z,11.40
2022-12-26T17:17:35.575Z,11.40
2022-12-26T17:20:34.339Z,11.40
2022-12-26T17:23:34.172Z,11.30
2022-12-26T17:26:24.499Z,11.40
2022-12-26T17:28:53.123Z,11.30
2022-12-26T17:31:29.001Z,11.30
2022-12-26T17:33:58.345Z,11.30
2022-12-26T17:37:17.390Z,11.30
2022-12-26T17:39:22.290Z,11.30
2022-12-26T17:41:53.048Z,11.30
2022-12-26T17:44:36.140Z,11.30
2022-12-26T17:47:14.968Z,11.30
2022-12-26T17:49:43.221Z,11.20
2022-12-26T17:52:14.557Z,11.20
2022-12-26T17:54:43.051Z,11.20
2022-12-26T17:57:21.602Z,11.10
2022-12-26T17:59:51.049Z,11.00
2022-12-26T18:02:20.033Z,11.00
2022-12-26T18:04:49.265Z,11.00
2022-12-26T18:07:28.722Z,11.00
2022-12-26T18:09:59.291Z,11.00
2022-12-26T18:12:27.500Z,11.00
2022-12-26T18:15:01.365Z,11.00
2022-12-26T18:17:33.028Z,11.00
2022-12-26T18:20:01.296Z,10.90
2022-12-26T18:22:30.956Z,10.90
2022-12-26T18:24:59.253Z,10.90
2022-12-26T18:27:31.358Z,10.80
2022-12-26T18:30:00.242Z,10.80
2022-12-26T18:32:30.629Z,10.70
2022-12-26T18:34:59.391Z,10.70
2022-12-26T18:37:31.451Z,10.60
2022-12-26T18:39:59.698Z,10.60
2022-12-26T18:42:27.923Z,10.60
2022-12-26T18:44:56.283Z,10.60
2022-12-26T18:47:24.582Z,10.50
2022-12-26T18:49:52.965Z,10.50
2022-12-26T18:52:21.210Z,10.50
2022-12-26T18:54:50.827Z,10.40
2022-12-26T18:57:21.836Z,10.50
2022-12-26T18:59:50.187Z,10.40
2022-12-26T19:02:20.116Z,10.40
2022-12-26T19:04:49.006Z,10.40
2022-12-26T19:07:20.434Z,10.40
2022-12-26T19:09:55.001Z,10.30
2022-12-26T19:12:23.820Z,10.30
2022-12-26T19:14:52.171Z,10.30
2022-12-26T19:17:20.382Z,10.30
2022-12-26T19:19:49.556Z,10.20
2022-12-26T19:22:17.819Z,10.20
2022-12-26T19:24:46.939Z,10.20
2022-12-26T19:27:16.666Z,10.20
2022-12-26T19:29:44.865Z,10.20
2022-12-26T19:32:13.131Z,10.20
2022-12-26T19:34:41.383Z,10.20
2022-12-26T19:37:09.638Z,10.20
2022-12-26T19:39:37.905Z,10.10
2022-12-26T19:42:06.263Z,10.10
2022-12-26T19:44:35.950Z,10.10
2022-12-26T19:47:11.704Z,10.00
2022-12-26T19:49:41.509Z,9.90
2022-12-26T19:52:10.020Z,9.80
2022-12-26T19:54:38.587Z,9.70
2022-12-26T19:57:07.188Z,9.60
2022-12-26T19:59:37.319Z,9.60
2022-12-26T20:02:06.039Z,9.50
2022-12-26T20:04:34.488Z,9.50
2022-12-26T20:07:03.031Z,9.40
2022-12-26T20:09:31.330Z,9.40
2022-12-26T20:11:59.585Z,9.30
2022-12-26T20:14:28.815Z,9.30
2022-12-26T20:17:08.278Z,9.20
2022-12-26T20:19:37.771Z,9.20
2022-12-26T20:22:07.639Z,9.20
2022-12-26T20:24:36.413Z,9.20
2022-12-26T20:27:05.007Z,9.20
2022-12-26T20:29:33.311Z,9.20
2022-12-26T20:32:03.014Z,9.20
2022-12-26T20:34:31.367Z,9.20
2022-12-26T20:36:59.761Z,9.30
2022-12-26T20:39:27.985Z,9.30
2022-12-26T20:41:56.323Z,9.30
2022-12-26T20:44:25.668Z,9.30
2022-12-26T20:46:54.193Z,9.30
2022-12-26T20:49:23.935Z,9.30
2022-12-26T20:51:52.203Z,9.30
2022-12-26T20:54:20.409Z,9.30
2022-12-26T20:56:48.979Z,9.30
2022-12-26T20:59:17.363Z,9.30
2022-12-26T21:01:46.407Z,9.30
2022-12-26T21:04:18.920Z,9.20
2022-12-26T21:06:50.640Z,9.20
2022-12-26T21:09:18.904Z,9.10
2022-12-26T21:11:47.172Z,9.00
2022-12-26T21:14:17.632Z,9.00
2022-12-26T21:16:47.988Z,8.90
2022-12-26T21:19:17.077Z,8.80
2022-12-26T21:21:47.026Z,8.80
2022-12-26T21:24:20.109Z,8.70
2022-12-26T21:26:49.005Z,8.60
2022-12-26T21:29:20.982Z,8.60
2022-12-26T21:31:49.829Z,8.70
2022-12-26T21:34:20.460Z,8.70
2022-12-26T21:37:03.081Z,8.70
2022-12-26T21:39:33.779Z,8.60
2022-12-26T21:42:02.610Z,8.50
2022-12-26T21:44:30.882Z,8.50
2022-12-26T21:46:59.245Z,8.50
2022-12-26T21:49:27.606Z,8.50
2022-12-26T21:51:55.845Z,8.50
2022-12-26T21:54:48.319Z,8.60
2022-12-26T21:57:19.710Z,8.50
2022-12-26T22:00:00.912Z,8.50
2022-12-26T22:02:49.022Z,8.50
2022-12-26T22:05:18.153Z,8.50
2022-12-26T22:07:46.980Z,8.50
2022-12-26T22:10:36.234Z,8.50
2022-12-26T22:13:05.823Z,8.50
2022-12-26T22:15:51.770Z,8.50
2022-12-26T22:18:20.608Z,8.60
2022-12-26T22:20:48.906Z,8.60
2022-12-26T22:23:17.144Z,8.70
2022-12-26T22:25:45.377Z,8.70
2022-12-26T22:28:20.157Z,8.70
2022-12-26T22:30:52.040Z,8.70
2022-12-26T22:33:20.741Z,8.70
2022-12-26T22:35:49.302Z,8.70
2022-12-26T22:38:17.571Z,8.70
2022-12-26T22:40:55.544Z,8.70
2022-12-26T22:43:26.038Z,8.70
2022-12-26T22:45:55.384Z,8.70
2022-12-26T22:48:24.657Z,8.60
2022-12-26T22:50:55.981Z,8.60
2022-12-26T22:53:25.210Z,8.60
2022-12-26T22:55:57.774Z,8.60
2022-12-26T22:58:27.802Z,8.60
2022-12-26T23:00:56.271Z,8.60
2022-12-26T23:03:25.046Z,8.60
2022-12-26T23:05:54.264Z,8.60
2022-12-26T23:08:24.521Z,8.60
2022-12-26T23:10:54.388Z,8.60
2022-12-26T23:13:23.319Z,8.60
2022-12-26T23:15:57.655Z,8.60
2022-12-26T23:18:52.321Z,8.50
2022-12-26T23:21:41.950Z,8.60
2022-12-26T23:24:16.327Z,8.50
2022-12-26T23:26:46.555Z,8.50
2022-12-26T23:29:33.963Z,8.50
2022-12-26T23:32:03.941Z,8.50
2022-12-26T23:34:32.524Z,8.50
2022-12-26T23:37:00.757Z,8.40
2022-12-26T23:39:30.825Z,8.40
2022-12-26T23:41:59.068Z,8.40
2022-12-26T23:44:27.358Z,8.40
2022-12-26T23:46:55.591Z,8.40
2022-12-26T23:49:25.330Z,8.30
2022-12-26T23:51:53.556Z,8.40
2022-12-26T23:54:21.898Z,8.40
2022-12-26T23:56:50.087Z,8.40
2022-12-26T23:59:19.785Z,8.40
